Time;durP1;ratioP1;P1;durP2;ratioP2;P2;SDS_P1;SDS_P2;PMS_P1;PMS_P2;Temp;Humidity;BMP_temperature;BMP_pressure;BME280_temperature;BME280_humidity;BME280_pressure;Samples;Min_cycle;Max_cycle;Signal;HPM_P1;HPM_P2
2022/09/19 00:00:23;;;;;;;;;;;;;;;7.92;94.53;101764.16;5044645;28;19925;-54
2022/09/19 00:02:48;;;;;;;;;;;;;;;7.92;94.36;101766.81;5042518;28;19929;-55
2022/09/19 00:05:13;;;;;;;;;;;;;;;7.89;94.30;101761.78;5043949;28;20377;-53
2022/09/19 00:07:39;;;;;;;;;;;;;;;7.87;94.15;101762.88;5048090;28;19924;-55
2022/09/19 00:10:05;;;;;;;;;;;;;;;7.85;93.92;101765.66;5042450;28;19925;-55
2022/09/19 00:12:31;;;;;;;;;;;;;;;7.83;94.12;101762.31;5042114;28;19917;-55
2022/09/19 00:14:57;;;;;;;;;;;;;;;7.81;93.76;101760.78;5047074;28;19923;-55
2022/09/19 00:17:22;;;;;;;;;;;;;;;7.76;93.78;101759.31;5048904;28;19975;-55
2022/09/19 00:19:48;;;;;;;;;;;;;;;7.73;93.90;101756.94;5048316;28;20414;-54
2022/09/19 00:22:13;;;;;;;;;;;;;;;7.68;93.96;101753.84;5054520;28;19929;-55
2022/09/19 00:24:49;;;;;;;;;;;;;;;7.64;94.05;101762.19;5048521;28;20372;-54
2022/09/19 00:27:18;;;;;;;;;;;;;;;7.59;93.90;101757.28;5056102;28;19928;-54
2022/09/19 00:29:43;;;;;;;;;;;;;;;7.55;93.95;101755.03;5047187;28;19924;-55
2022/09/19 00:32:12;;;;;;;;;;;;;;;7.53;93.94;101765.72;5048622;28;20504;-55
2022/09/19 00:34:39;;;;;;;;;;;;;;;7.46;93.85;101760.09;5044319;28;19920;-55
2022/09/19 00:37:04;;;;;;;;;;;;;;;7.42;93.89;101763.13;5048521;28;20011;-54
2022/09/19 00:39:30;;;;;;;;;;;;;;;7.44;94.03;101763.84;5053407;28;20020;-55
2022/09/19 00:41:55;;;;;;;;;;;;;;;7.44;94.12;101763.84;5042157;28;19961;-54
2022/09/19 00:44:26;;;;;;;;;;;;;;;7.47;94.16;101768.88;5044139;28;20403;-54
2022/09/19 00:47:00;;;;;;;;;;;;;;;7.51;94.18;101766.81;5051046;28;19917;-55
2022/09/19 00:49:28;;;;;;;;;;;;;;;7.53;94.15;101767.53;5047100;28;19928;-55
2022/09/19 00:51:55;;;;;;;;;;;;;;;7.51;94.15;101758.88;5049519;28;19921;-53
2022/09/19 00:54:28;;;;;;;;;;;;;;;7.51;94.42;101756.22;5046636;28;21519;-55
2022/09/19 00:56:54;;;;;;;;;;;;;;;7.52;94.40;101760.53;5038225;28;19921;-54
2022/09/19 00:59:21;;;;;;;;;;;;;;;7.53;94.26;101767.53;5044194;28;19924;-54
2022/09/19 01:01:48;;;;;;;;;;;;;;;7.54;94.14;101772.69;5042136;28;19929;-55
2022/09/19 01:04:18;;;;;;;;;;;;;;;7.58;93.97;101763.53;5047885;28;19927;-53
2022/09/19 01:06:55;;;;;;;;;;;;;;;7.63;94.36;101771.91;5044331;28;19917;-55
2022/09/19 01:09:28;;;;;;;;;;;;;;;7.66;93.94;101776.94;5043512;28;19932;-53
2022/09/19 01:12:03;;;;;;;;;;;;;;;7.66;94.15;101779.59;5047635;28;20396;-53
2022/09/19 01:14:29;;;;;;;;;;;;;;;7.66;93.90;101782.22;5042584;28;20343;-54
2022/09/19 01:17:05;;;;;;;;;;;;;;;7.67;94.09;101783.06;5041627;28;19956;-55
2022/09/19 01:19:57;;;;;;;;;;;;;;;7.67;93.76;101783.06;5047210;28;20287;-53
2022/09/19 01:22:31;;;;;;;;;;;;;;;7.63;93.85;101787.78;5043754;28;19921;-54
2022/09/19 01:24:58;;;;;;;;;;;;;;;7.63;94.07;101781.66;5040367;28;20377;-54
2022/09/19 01:27:39;;;;;;;;;;;;;;;7.64;93.79;101794.75;5048800;28;20019;-53
2022/09/19 01:30:06;;;;;;;;;;;;;;;7.66;94.11;101791.97;5046845;28;20303;-54
2022/09/19 01:32:34;;;;;;;;;;;;;;;7.66;94.23;101794.63;5041771;28;20385;-54
2022/09/19 01:35:03;;;;;;;;;;;;;;;7.68;94.31;101790.03;5042063;28;20446;-52
2022/09/19 01:37:42;;;;;;;;;;;;;;;7.73;94.65;101791.31;5052493;28;19913;-52
2022/09/19 01:40:09;;;;;;;;;;;;;;;7.81;94.76;101796.00;5048258;28;19917;-52
2022/09/19 01:42:34;;;;;;;;;;;;;;;7.88;94.74;101797.13;5045590;28;20401;-52
2022/09/19 01:45:00;;;;;;;;;;;;;;;7.95;94.84;101797.44;5043301;28;19928;-55
2022/09/19 01:47:43;;;;;;;;;;;;;;;8.02;94.90;101803.88;5044477;28;20196;-54
2022/09/19 01:50:14;;;;;;;;;;;;;;;8.10;94.94;101800.63;5043950;28;20012;-53
2022/09/19 01:52:48;;;;;;;;;;;;;;;8.15;94.94;101798.41;5044823;28;19923;-53
2022/09/19 01:55:20;;;;;;;;;;;;;;;8.21;95.03;101793.41;5040961;28;19971;-53
2022/09/19 01:57:51;;;;;;;;;;;;;;;8.24;94.72;101797.63;5040142;28;19916;-52
2022/09/19 02:00:18;;;;;;;;;;;;;;;8.26;94.56;101788.56;5044187;28;19924;-53
2022/09/19 02:02:43;;;;;;;;;;;;;;;8.27;94.64;101797.34;5044204;28;19998;-53
2022/09/19 02:05:14;;;;;;;;;;;;;;;8.22;94.25;101797.75;5042632;28;19925;-55
2022/09/19 02:07:44;;;;;;;;;;;;;;;8.19;94.19;101799.81;5042020;28;19974;-54
2022/09/19 02:10:21;;;;;;;;;;;;;;;8.17;94.01;101807.88;5039272;28;20002;-54
2022/09/19 02:12:50;;;;;;;;;;;;;;;8.13;93.48;101809.13;5041470;28;19972;-55
2022/09/19 02:15:17;;;;;;;;;;;;;;;8.08;93.81;101792.78;5041666;28;19963;-53
2022/09/19 02:17:50;;;;;;;;;;;;;;;8.08;93.59;101798.06;5044615;28;19917;-54
2022/09/19 02:20:22;;;;;;;;;;;;;;;8.06;93.50;101800.00;5042842;28;19927;-55
2022/09/19 02:22:50;;;;;;;;;;;;;;;8.03;93.53;101809.03;5041699;28;19975;-56
2022/09/19 02:25:18;;;;;;;;;;;;;;;8.00;93.56;101809.31;5042608;28;19974;-54
2022/09/19 02:27:49;;;;;;;;;;;;;;;7.96;93.47;101815.00;5044109;28;19921;-55
2022/09/19 02:30:15;;;;;;;;;;;;;;;7.91;93.33;101811.91;5044160;28;19924;-55
2022/09/19 02:32:47;;;;;;;;;;;;;;;7.84;93.51;101811.59;5042772;28;19921;-55
2022/09/19 02:35:13;;;;;;;;;;;;;;;7.77;93.54;101816.53;5043636;28;20346;-54
2022/09/19 02:37:43;;;;;;;;;;;;;;;7.72;93.60;101820.53;5035754;28;19973;-55
2022/09/19 02:40:14;;;;;;;;;;;;;;;7.68;93.72;101825.25;5043066;28;19921;-55
2022/09/19 02:42:43;;;;;;;;;;;;;;;7.68;93.54;101816.47;5043333;28;19975;-55
2022/09/19 02:45:08;;;;;;;;;;;;;;;7.66;93.65;101821.88;5042129;28;19927;-55
2022/09/19 02:47:40;;;;;;;;;;;;;;;7.65;94.20;101820.22;5043792;28;20011;-53
2022/09/19 02:50:08;;;;;;;;;;;;;;;7.66;94.40;101821.03;5037688;28;19921;-55
2022/09/19 02:52:33;;;;;;;;;;;;;;;7.66;94.58;101816.59;5042756;28;19920;-54
2022/09/19 02:55:12;;;;;;;;;;;;;;;7.69;94.92;101816.34;5042241;28;20350;-55
2022/09/19 02:57:39;;;;;;;;;;;;;;;7.73;94.73;101820.41;5043890;28;20707;-55
2022/09/19 03:00:06;;;;;;;;;;;;;;;7.77;94.80;101818.34;5041051;28;19975;-54
2022/09/19 03:02:36;;;;;;;;;;;;;;;7.78;95.13;101822.66;5042029;28;19925;-54
2022/09/19 03:05:20;;;;;;;;;;;;;;;7.78;94.89;101823.50;5041455;28;19924;-55
2022/09/19 03:07:50;;;;;;;;;;;;;;;7.79;94.96;101826.97;5042031;28;19924;-53
2022/09/19 03:10:18;;;;;;;;;;;;;;;7.80;94.99;101830.47;5044627;28;19967;-54
2022/09/19 03:12:51;;;;;;;;;;;;;;;7.80;94.77;101830.47;5045552;28;20148;-53
2022/09/19 03:15:21;;;;;;;;;;;;;;;7.81;94.83;101833.00;5042828;28;19925;-54
2022/09/19 03:17:49;;;;;;;;;;;;;;;7.83;95.10;101830.22;5044929;28;19917;-52
2022/09/19 03:20:14;;;;;;;;;;;;;;;7.83;94.94;101823.13;5043532;28;20008;-55
2022/09/19 03:22:40;;;;;;;;;;;;;;;7.83;94.89;101830.22;5045942;28;20019;-53
2022/09/19 03:25:09;;;;;;;;;;;;;;;7.82;94.98;101820.63;5043129;28;19927;-55
2022/09/19 03:27:36;;;;;;;;;;;;;;;7.82;95.04;101817.97;5045305;28;19916;-54
2022/09/19 03:30:02;;;;;;;;;;;;;;;7.80;94.93;101828.66;5045460;28;19924;-55
2022/09/19 03:32:27;;;;;;;;;;;;;;;7.81;94.84;101830.34;5045740;28;19925;-55
2022/09/19 03:34:55;;;;;;;;;;;;;;;7.83;95.07;101824.94;5042415;28;20447;-55
2022/09/19 03:37:21;;;;;;;;;;;;;;;7.84;95.06;101823.97;5044385;28;19921;-53
2022/09/19 03:39:46;;;;;;;;;;;;;;;7.84;95.23;101826.63;5046553;28;20007;-54
2022/09/19 03:42:12;;;;;;;;;;;;;;;7.82;95.23;101824.09;5047192;28;19921;-53
2022/09/19 03:44:38;;;;;;;;;;;;;;;7.83;95.14;101830.22;5045855;28;19917;-55
2022/09/19 03:47:04;;;;;;;;;;;;;;;7.84;95.31;101826.63;5044338;28;20539;-53
2022/09/19 03:49:30;;;;;;;;;;;;;;;7.87;95.36;101839.56;5044515;28;19921;-51
2022/09/19 03:51:55;;;;;;;;;;;;;;;7.89;95.30;101824.41;5043711;28;19928;-52
2022/09/19 03:54:20;;;;;;;;;;;;;;;7.88;95.41;101834.16;5046004;28;20387;-52
2022/09/19 03:56:45;;;;;;;;;;;;;;;7.89;95.47;101835.84;5041355;28;20003;-53
2022/09/19 03:59:11;;;;;;;;;;;;;;;7.88;95.25;101834.16;5043520;28;19992;-53
2022/09/19 04:01:36;;;;;;;;;;;;;;;7.87;95.22;101843.06;5044313;28;19945;-53
2022/09/19 04:04:01;;;;;;;;;;;;;;;7.86;95.14;101840.56;5044507;28;19960;-52
2022/09/19 04:06:26;;;;;;;;;;;;;;;7.82;95.08;101833.84;5043553;28;19920;-54
2022/09/19 04:08:51;;;;;;;;;;;;;;;7.78;94.78;101839.34;5043439;28;20368;-55
2022/09/19 04:11:17;;;;;;;;;;;;;;;7.76;94.71;101837.81;5043733;28;20471;-55
2022/09/19 04:13:42;;;;;;;;;;;;;;;7.74;94.58;101843.22;5043942;28;19959;-53
2022/09/19 04:16:08;;;;;;;;;;;;;;;7.73;95.00;101844.19;5054487;28;19916;-52
2022/09/19 04:18:34;;;;;;;;;;;;;;;7.74;94.50;101851.16;5049033;28;19952;-53
2022/09/19 04:20:59;;;;;;;;;;;;;;;7.74;94.71;101853.81;5047739;28;19978;-53
2022/09/19 04:23:26;;;;;;;;;;;;;;;7.79;95.00;101850.78;5047066;28;19921;-55
2022/09/19 04:25:51;;;;;;;;;;;;;;;7.78;94.72;101847.28;5046315;28;19964;-54
2022/09/19 04:28:18;;;;;;;;;;;;;;;7.78;94.91;101855.22;5043107;28;20528;-54
2022/09/19 04:30:44;;;;;;;;;;;;;;;7.77;95.04;101853.53;5047437;28;20342;-54
2022/09/19 04:33:10;;;;;;;;;;;;;;;7.77;94.91;101845.63;5048200;28;19917;-53
2022/09/19 04:35:36;;;;;;;;;;;;;;;7.78;95.26;101849.94;5042773;28;19956;-53
2022/09/19 04:38:06;;;;;;;;;;;;;;;7.78;95.19;101851.75;5038352;28;19971;-53
2022/09/19 04:40:36;;;;;;;;;;;;;;;7.81;95.06;101851.50;5047999;28;19927;-55
2022/09/19 04:43:02;;;;;;;;;;;;;;;7.82;95.54;101850.56;5049023;28;20015;-54
2022/09/19 04:45:28;;;;;;;;;;;;;;;7.85;95.55;101857.38;5047396;28;20004;-53
2022/09/19 04:47:54;;;;;;;;;;;;;;;7.85;95.44;101862.66;5042759;28;19921;-52
2022/09/19 04:50:19;;;;;;;;;;;;;;;7.86;95.66;101864.34;5047517;28;20032;-53
2022/09/19 04:52:45;;;;;;;;;;;;;;;7.86;95.65;101865.19;5044078;28;20451;-55
2022/09/19 04:55:10;;;;;;;;;;;;;;;7.85;95.54;101870.59;5042393;28;19920;-53
2022/09/19 04:57:35;;;;;;;;;;;;;;;7.85;95.61;101867.97;5042877;28;19916;-54
2022/09/19 05:00:01;;;;;;;;;;;;;;;7.87;95.65;101877.44;5042224;28;19917;-54
2022/09/19 05:02:31;;;;;;;;;;;;;;;7.88;95.55;101876.47;5039446;28;19928;-55
2022/09/19 05:04:56;;;;;;;;;;;;;;;7.91;95.70;101875.38;5039375;28;19925;-54
2022/09/19 05:07:28;;;;;;;;;;;;;;;7.96;95.54;101873.19;5039547;28;20014;-54
2022/09/19 05:09:53;;;;;;;;;;;;;;;8.00;95.67;101879.88;5052913;28;19920;-54
2022/09/19 05:12:20;;;;;;;;;;;;;;;8.03;95.96;101885.75;5044943;28;20410;-55
2022/09/19 05:14:46;;;;;;;;;;;;;;;8.08;95.95;101877.44;5048817;28;20283;-52
2022/09/19 05:17:12;;;;;;;;;;;;;;;8.11;95.76;101879.84;5038136;28;19917;-54
2022/09/19 05:19:37;;;;;;;;;;;;;;;8.15;96.00;101878.63;5040299;28;19999;-54
2022/09/19 05:22:02;;;;;;;;;;;;;;;8.18;95.92;101882.81;5043747;28;20261;-53
2022/09/19 05:24:27;;;;;;;;;;;;;;;8.21;95.75;101882.56;5043743;28;21636;-52
2022/09/19 05:26:54;;;;;;;;;;;;;;;8.23;95.95;101881.44;5043909;28;20438;-54
2022/09/19 05:29:19;;;;;;;;;;;;;;;8.27;95.95;101887.31;5046242;28;20376;-54
2022/09/19 05:31:46;;;;;;;;;;;;;;;8.29;95.84;101891.50;5042223;28;20023;-54
2022/09/19 05:34:13;;;;;;;;;;;;;;;8.30;95.83;101898.47;5042764;28;19917;-54
2022/09/19 05:36:38;;;;;;;;;;;;;;;8.32;95.50;101893.88;5044878;28;20377;-54
2022/09/19 05:39:04;;;;;;;;;;;;;;;8.34;95.45;101894.63;5041778;28;20448;-53
2022/09/19 05:41:29;;;;;;;;;;;;;;;8.36;95.70;101899.78;5041613;28;19940;-53
2022/09/19 05:43:55;;;;;;;;;;;;;;;8.37;95.58;101901.47;5038030;28;19925;-52
2022/09/19 05:46:20;;;;;;;;;;;;;;;8.40;95.64;101909.19;5042596;28;19944;-54
2022/09/19 05:48:48;;;;;;;;;;;;;;;8.44;95.76;101907.09;5050228;28;19964;-53
2022/09/19 05:51:14;;;;;;;;;;;;;;;8.46;95.69;101918.41;5049856;28;19921;-52
2022/09/19 05:53:56;;;;;;;;;;;;;;;8.48;95.86;101908.53;5038590;28;19924;-53
2022/09/19 05:56:21;;;;;;;;;;;;;;;8.54;95.67;101926.53;5045529;28;19951;-54
2022/09/19 05:58:47;;;;;;;;;;;;;;;8.55;95.96;101915.81;5043660;28;19978;-54
2022/09/19 06:01:13;;;;;;;;;;;;;;;8.59;95.68;101913.72;5038810;28;20034;-54
2022/09/19 06:03:39;;;;;;;;;;;;;;;8.63;96.06;101923.06;5044764;28;19925;-56
2022/09/19 06:06:11;;;;;;;;;;;;;;;8.68;95.86;101928.84;5038750;28;19996;-55
2022/09/19 06:08:36;;;;;;;;;;;;;;;8.72;96.14;101922.31;5041035;28;19917;-54
2022/09/19 06:11:01;;;;;;;;;;;;;;;8.79;96.17;101930.56;5037700;28;19932;-54
2022/09/19 06:14:13;;;;;;;;;;;;;;;8.81;95.93;101924.16;5047581;28;19917;-54
2022/09/19 06:16:12;;;;;;;;;;;;;;;8.87;96.00;101930.72;5047848;28;19917;-54
2022/09/19 06:18:37;;;;;;;;;;;;;;;8.92;96.09;101921.41;5047778;28;20004;-55
2022/09/19 06:21:02;;;;;;;;;;;;;;;9.02;96.11;101925.94;5037158;28;19924;-54
2022/09/19 06:23:28;;;;;;;;;;;;;;;9.09;96.20;101938.50;5046675;28;19935;-54
2022/09/19 06:25:53;;;;;;;;;;;;;;;9.12;96.14;101924.13;5046712;28;19979;-53
2022/09/19 06:28:18;;;;;;;;;;;;;;;9.14;95.87;101933.63;5044100;28;19928;-53
2022/09/19 06:30:43;;;;;;;;;;;;;;;9.15;95.92;101934.47;5044420;28;19924;-53
2022/09/19 06:33:09;;;;;;;;;;;;;;;9.15;95.93;101939.75;5038150;28;19921;-53
2022/09/19 06:35:34;;;;;;;;;;;;;;;9.17;95.76;101943.13;5046843;28;19924;-54
2022/09/19 06:38:01;;;;;;;;;;;;;;;9.20;95.88;101935.72;5048069;28;19917;-54
2022/09/19 06:40:27;;;;;;;;;;;;;;;9.27;96.11;101933.41;5040580;28;19921;-53
2022/09/19 06:43:01;;;;;;;;;;;;;;;9.36;96.16;101937.88;5039536;28;20017;-55
2022/09/19 06:45:26;;;;;;;;;;;;;;;9.48;95.67;101936.78;5047796;28;19984;-55
2022/09/19 06:47:55;;;;;;;;;;;;;;;9.59;95.77;101947.28;5045202;28;19953;-54
2022/09/19 06:50:20;;;;;;;;;;;;;;;9.70;95.54;101948.13;5049187;28;19917;-54
2022/09/19 06:52:46;;;;;;;;;;;;;;;9.80;95.66;101954.28;5049800;28;20011;-53
2022/09/19 06:55:11;;;;;;;;;;;;;;;9.90;95.78;101949.84;5050696;28;20382;-54
2022/09/19 06:57:36;;;;;;;;;;;;;;;10.02;95.65;101958.50;5043126;28;19921;-53
2022/09/19 07:00:02;;;;;;;;;;;;;;;10.12;95.84;101962.84;5042854;28;19920;-52
2022/09/19 07:02:28;;;;;;;;;;;;;;;10.23;95.44;101972.50;5047301;28;20015;-53
2022/09/19 07:04:53;;;;;;;;;;;;;;;10.33;95.65;101983.94;5049882;28;20358;-55
2022/09/19 07:07:18;;;;;;;;;;;;;;;10.36;95.53;101966.88;5054540;28;20445;-52
2022/09/19 07:09:43;;;;;;;;;;;;;;;10.49;95.43;101981.56;5048008;28;19963;-53
2022/09/19 07:12:09;;;;;;;;;;;;;;;10.59;95.19;101978.88;5042728;28;19936;-51
2022/09/19 07:14:34;;;;;;;;;;;;;;;10.68;95.17;101985.16;5048173;28;19912;-52
2022/09/19 07:16:59;;;;;;;;;;;;;;;10.77;95.38;101990.47;5048298;28;20000;-55
2022/09/19 07:19:24;;;;;;;;;;;;;;;10.87;95.24;101990.41;5048595;28;19958;-54
2022/09/19 07:21:51;;;;;;;;;;;;;;;10.96;94.91;101988.72;5051031;28;19960;-53
2022/09/19 07:24:16;;;;;;;;;;;;;;;11.05;94.63;101993.19;5050281;28;20399;-54
2022/09/19 07:26:41;;;;;;;;;;;;;;;11.13;94.36;101990.63;5049718;28;20003;-55
2022/09/19 07:29:07;;;;;;;;;;;;;;;11.24;94.37;101995.75;5054960;28;20372;-54
2022/09/19 07:31:32;;;;;;;;;;;;;;;11.34;94.28;101993.91;5055351;28;19916;-50
2022/09/19 07:33:57;;;;;;;;;;;;;;;11.44;93.55;102001.81;5050481;28;20396;-55
2022/09/19 07:36:23;;;;;;;;;;;;;;;11.55;93.36;101998.09;5045619;28;20011;-53
2022/09/19 07:38:48;;;;;;;;;;;;;;;11.62;93.22;101993.91;5045922;28;20007;-55
2022/09/19 07:41:14;;;;;;;;;;;;;;;11.72;93.14;101995.50;5046515;28;20343;-55
2022/09/19 07:43:39;;;;;;;;;;;;;;;11.80;92.65;102002.75;5051389;28;20360;-55
2022/09/19 07:46:04;;;;;;;;;;;;;;;11.90;92.40;101994.72;5049436;28;20012;-55
2022/09/19 07:48:29;;;;;;;;;;;;;;;11.98;92.35;101997.47;5047958;28;19917;-55
2022/09/19 07:50:56;;;;;;;;;;;;;;;12.05;91.58;102002.03;5043933;28;19923;-55
2022/09/19 07:53:22;;;;;;;;;;;;;;;12.09;91.64;102010.53;5047335;28;19913;-54
2022/09/19 07:55:54;;;;;;;;;;;;;;;12.08;91.38;102004.38;5053287;28;19947;-54
2022/09/19 07:58:20;;;;;;;;;;;;;;;12.10;90.79;102013.03;5049704;28;20295;-54
2022/09/19 08:00:46;;;;;;;;;;;;;;;12.09;90.73;102013.19;5051627;28;19917;-55
2022/09/19 08:03:12;;;;;;;;;;;;;;;12.10;91.04;102017.53;5048385;28;19943;-55
2022/09/19 08:05:39;;;;;;;;;;;;;;;12.10;91.04;102014.88;5048518;28;19917;-55
2022/09/19 08:08:05;;;;;;;;;;;;;;;12.09;90.94;102023.84;5042810;28;19952;-55
2022/09/19 08:10:30;;;;;;;;;;;;;;;12.08;90.54;102028.34;5051224;28;19913;-54
2022/09/19 08:13:05;;;;;;;;;;;;;;;12.12;90.71;102031.53;5051060;28;19919;-55
2022/09/19 08:15:32;;;;;;;;;;;;;;;12.20;91.00;102025.47;5041318;28;19917;-55
2022/09/19 08:17:59;;;;;;;;;;;;;;;12.27;90.67;102031.84;5045212;28;19917;-53
2022/09/19 08:20:25;;;;;;;;;;;;;;;12.32;90.06;102030.41;5045010;28;19923;-54
2022/09/19 08:22:59;;;;;;;;;;;;;;;12.38;90.29;102035.13;5043128;28;21277;-54
2022/09/19 08:25:25;;;;;;;;;;;;;;;12.46;90.07;102030.88;5050072;28;19920;-52
2022/09/19 08:27:51;;;;;;;;;;;;;;;12.52;89.80;102028.41;5055058;28;19920;-53
2022/09/19 08:30:16;;;;;;;;;;;;;;;12.58;90.24;102035.78;5046509;28;19929;-53
2022/09/19 08:32:44;;;;;;;;;;;;;;;12.63;90.19;102035.31;5046464;28;19921;-52
2022/09/19 08:35:09;;;;;;;;;;;;;;;12.69;89.73;102040.03;5046334;28;19916;-53
2022/09/19 08:37:34;;;;;;;;;;;;;;;12.77;89.73;102045.44;5055653;28;19947;-53
2022/09/19 08:40:19;;;;;;;;;;;;;;;12.89;90.08;102046.84;5049552;28;20008;-50
2022/09/19 08:42:44;;;;;;;;;;;;;;;13.01;89.40;102053.63;5048914;28;20011;-59
2022/09/19 08:45:18;;;;;;;;;;;;;;;13.10;89.28;102048.31;5050281;28;19992;-54
2022/09/19 08:47:44;;;;;;;;;;;;;;;13.18;88.60;102057.25;5048478;28;19921;-55
2022/09/19 08:50:25;;;;;;;;;;;;;;;13.25;88.56;102049.44;5039121;28;20311;-55
2022/09/19 08:52:52;;;;;;;;;;;;;;;13.32;87.75;102046.00;5044535;28;19913;-54
2022/09/19 08:55:21;;;;;;;;;;;;;;;13.39;87.28;102048.03;5049118;28;19917;-54
2022/09/19 08:57:58;;;;;;;;;;;;;;;13.43;87.21;102044.88;5044695;28;20027;-55
2022/09/19 09:00:23;;;;;;;;;;;;;;;13.55;86.97;102048.06;5045935;28;19995;-54
2022/09/19 09:02:51;;;;;;;;;;;;;;;13.64;86.91;102047.13;5035976;28;20480;-55
2022/09/19 09:05:37;;;;;;;;;;;;;;;13.71;86.06;102042.81;5047420;28;19925;-54
2022/09/19 09:08:05;;;;;;;;;;;;;;;13.82;86.19;102047.84;5047980;28;19917;-54
2022/09/19 09:10:31;;;;;;;;;;;;;;;13.95;85.72;102050.91;5052036;28;19913;-55
2022/09/19 09:13:16;;;;;;;;;;;;;;;14.09;83.86;102048.59;5047855;28;19917;-53
2022/09/19 09:15:50;;;;;;;;;;;;;;;14.19;82.66;102047.47;5044380;28;19920;-54
2022/09/19 09:18:15;;;;;;;;;;;;;;;14.31;82.41;102049.78;5045007;28;20402;-54
2022/09/19 09:20:47;;;;;;;;;;;;;;;14.40;81.77;102044.28;5045364;28;19917;-54
2022/09/19 09:23:18;;;;;;;;;;;;;;;14.44;80.37;102047.50;5046244;28;19916;-54
2022/09/19 09:25:47;;;;;;;;;;;;;;;14.48;80.08;102047.00;5046289;28;19978;-54
2022/09/19 09:28:19;;;;;;;;;;;;;;;14.56;80.14;102043.50;5040375;28;20273;-55
2022/09/19 09:30:46;;;;;;;;;;;;;;;14.67;79.28;102035.13;5040705;28;20298;-55
2022/09/19 09:33:23;;;;;;;;;;;;;;;14.80;78.98;102037.31;5039167;28;19967;-55
2022/09/19 09:35:52;;;;;;;;;;;;;;;14.96;79.15;102031.91;5042551;28;19978;-55
2022/09/19 09:38:24;;;;;;;;;;;;;;;15.11;77.98;102035.56;5048157;28;19925;-55
2022/09/19 09:43:49;;;;;;;;;;;;;;;15.32;76.06;102036.84;5038223;28;19970;-55
2022/09/19 09:46:18;;;;;;;;;;;;;;;15.51;75.93;102033.75;5041643;28;19921;-55
2022/09/19 09:48:44;;;;;;;;;;;;;;;15.67;76.02;102043.63;5040210;28;20024;-55
2022/09/19 09:51:41;;;;;;;;;;;;;;;15.68;76.08;102054.16;5042537;28;20078;-54
2022/09/19 09:57:19;;;;;;;;;;;;;;;15.48;75.53;102055.53;5017140;28;19967;-54
2022/09/19 10:05:20;;;;;;;;;;;;;;;15.45;74.61;102056.72;5042794;28;20295;-55
2022/09/19 10:07:58;;;;;;;;;;;;;;;15.44;73.95;102070.28;5046742;28;20269;-55
2022/09/19 10:10:24;;;;;;;;;;;;;;;15.40;73.05;102064.44;5038906;28;20304;-55
2022/09/19 10:12:58;;;;;;;;;;;;;;;15.30;72.78;102074.47;5041331;28;19925;-54
2022/09/19 10:15:25;;;;;;;;;;;;;;;15.21;73.11;102080.03;5043040;28;19943;-55
2022/09/19 10:18:04;;;;;;;;;;;;;;;15.12;72.62;102082.72;5043437;28;20387;-55
2022/09/19 10:20:38;;;;;;;;;;;;;;;15.06;71.42;102082.59;5046553;28;20424;-55
2022/09/19 10:23:03;;;;;;;;;;;;;;;14.93;71.43;102077.72;5038598;28;19921;-55
2022/09/19 10:25:30;;;;;;;;;;;;;;;14.89;72.22;102076.41;5041374;28;20389;-55
2022/09/19 10:27:56;;;;;;;;;;;;;;;14.86;72.63;102084.78;5035850;28;19924;-55
2022/09/19 10:30:25;;;;;;;;;;;;;;;14.84;73.37;102082.25;5046024;28;19923;-52
2022/09/19 10:32:51;;;;;;;;;;;;;;;14.84;73.75;102084.09;5042706;28;19913;-53
2022/09/19 10:35:30;;;;;;;;;;;;;;;14.82;73.85;102078.09;5038757;28;19964;-53
2022/09/19 10:37:59;;;;;;;;;;;;;;;14.84;74.16;102079.59;5042149;28;19968;-53
2022/09/19 10:40:25;;;;;;;;;;;;;;;14.87;74.15;102073.06;5034610;28;20010;-55
2022/09/19 10:42:50;;;;;;;;;;;;;;;14.90;73.80;102072.72;5041169;28;20034;-55
2022/09/19 10:45:16;;;;;;;;;;;;;;;14.91;73.20;102063.69;5040843;28;20027;-54
2022/09/19 10:47:41;;;;;;;;;;;;;;;15.02;73.94;102071.38;5042623;28;19921;-53
2022/09/19 10:50:12;;;;;;;;;;;;;;;15.11;73.84;102070.38;5040516;28;19962;-54
2022/09/19 10:52:40;;;;;;;;;;;;;;;15.26;73.35;102070.47;5043418;28;19923;-54
2022/09/19 10:55:09;;;;;;;;;;;;;;;15.28;72.57;102071.16;5030787;28;19921;-54
2022/09/19 10:57:45;;;;;;;;;;;;;;;15.36;72.22;102070.31;5046377;28;19913;-54
2022/09/19 11:00:25;;;;;;;;;;;;;;;15.47;72.69;102073.44;5042112;28;20388;-55
2022/09/19 11:02:57;;;;;;;;;;;;;;;15.56;72.87;102070.72;5052040;28;19923;-54
2022/09/19 11:05:24;;;;;;;;;;;;;;;15.57;71.92;102067.88;5045577;28;19916;-56
2022/09/19 11:07:54;;;;;;;;;;;;;;;15.57;72.39;102072.41;5043128;28;20066;-55
2022/09/19 11:10:33;;;;;;;;;;;;;;;15.67;72.53;102071.22;5049358;28;19924;-55
2022/09/19 11:13:12;;;;;;;;;;;;;;;15.75;72.86;102063.16;5040132;28;20403;-54
2022/09/19 11:15:49;;;;;;;;;;;;;;;15.83;72.86;102070.31;5043155;28;19951;-54
2022/09/19 11:18:22;;;;;;;;;;;;;;;15.86;72.96;102067.28;5043065;28;19921;-54
2022/09/19 11:20:57;;;;;;;;;;;;;;;15.89;72.49;102074.97;5042003;28;19920;-56
2022/09/19 11:23:38;;;;;;;;;;;;;;;15.88;71.97;102069.78;5041683;28;19921;-56
2022/09/19 11:26:03;;;;;;;;;;;;;;;15.87;71.28;102057.41;5042926;28;19974;-54
2022/09/19 11:28:37;;;;;;;;;;;;;;;15.95;71.33;102060.06;5044052;28;19913;-55
2022/09/19 11:31:05;;;;;;;;;;;;;;;16.03;70.91;102068.03;5036874;28;19917;-56
2022/09/19 11:33:38;;;;;;;;;;;;;;;16.05;69.28;102066.84;5045129;28;19943;-54
2022/09/19 11:36:12;;;;;;;;;;;;;;;16.03;68.79;102066.19;5048663;28;20324;-55
2022/09/19 11:38:53;;;;;;;;;;;;;;;15.99;68.57;102072.06;5047289;28;19921;-56
2022/09/19 11:41:33;;;;;;;;;;;;;;;16.00;68.09;102065.72;5040611;28;19935;-54
2022/09/19 11:44:18;;;;;;;;;;;;;;;16.09;68.14;102062.78;5045344;28;19928;-54
2022/09/19 11:46:57;;;;;;;;;;;;;;;16.24;68.43;102049.47;5046890;28;19924;-54
2022/09/19 11:49:36;;;;;;;;;;;;;;;16.36;68.08;102053.41;5044634;28;19986;-55
2022/09/19 11:52:20;;;;;;;;;;;;;;;16.58;67.41;102054.41;5047691;28;19924;-54
2022/09/19 11:54:58;;;;;;;;;;;;;;;16.67;66.69;102039.09;5051236;28;19923;-54
2022/09/19 11:57:37;;;;;;;;;;;;;;;16.77;65.62;102052.25;5041228;28;20458;-55
2022/09/19 12:00:05;;;;;;;;;;;;;;;16.81;66.46;102050.91;5042240;28;19929;-53
2022/09/19 12:02:49;;;;;;;;;;;;;;;16.79;66.52;102051.09;5048509;28;20300;-54
2022/09/19 12:05:25;;;;;;;;;;;;;;;16.72;66.86;102053.63;5050337;28;19917;-55
2022/09/19 12:07:52;;;;;;;;;;;;;;;16.62;66.80;102049.53;5047553;28;20020;-55
2022/09/19 12:10:32;;;;;;;;;;;;;;;16.52;66.98;102041.72;5051420;28;20404;-55
2022/09/19 12:13:13;;;;;;;;;;;;;;;16.49;67.54;102043.94;5047772;28;20286;-54
2022/09/19 12:15:43;;;;;;;;;;;;;;;16.52;67.54;102046.25;5048928;28;19913;-55
2022/09/19 12:18:11;;;;;;;;;;;;;;;16.55;67.64;102048.59;5051870;28;19999;-56
2022/09/19 12:20:41;;;;;;;;;;;;;;;16.53;67.73;102054.13;5051261;28;19955;-54
2022/09/19 12:25:57;;;;;;;;;;;;;;;16.41;67.52;102051.00;5048407;28;20390;-56
2022/09/19 12:28:26;;;;;;;;;;;;;;;16.38;67.98;102048.69;5046383;28;20000;-54
2022/09/19 12:30:55;;;;;;;;;;;;;;;16.35;68.12;102057.09;5046673;28;19916;-54
2022/09/19 12:33:33;;;;;;;;;;;;;;;16.28;68.05;102058.84;5046638;28;20414;-54
2022/09/19 12:36:04;;;;;;;;;;;;;;;16.21;68.01;102059.72;5039239;28;19913;-53
2022/09/19 12:38:39;;;;;;;;;;;;;;;16.17;68.48;102064.59;5046967;28;20011;-54
2022/09/19 12:41:24;;;;;;;;;;;;;;;16.15;68.35;102063.94;5048650;28;20439;-54
2022/09/19 12:43:49;;;;;;;;;;;;;;;16.17;68.76;102058.38;5047206;28;19970;-54
2022/09/19 12:46:34;;;;;;;;;;;;;;;16.25;68.91;102053.81;5046683;28;20019;-52
2022/09/19 12:49:18;;;;;;;;;;;;;;;16.38;69.00;102051.38;5046456;28;19924;-54
2022/09/19 12:52:01;;;;;;;;;;;;;;;16.45;68.36;102051.47;5043881;28;19916;-52
2022/09/19 12:54:36;;;;;;;;;;;;;;;16.56;68.97;102052.94;5046083;28;20311;-54
2022/09/19 12:57:16;;;;;;;;;;;;;;;16.74;68.67;102053.44;5039139;28;19923;-52
2022/09/19 12:59:43;;;;;;;;;;;;;;;16.92;68.76;102055.81;5045616;28;19924;-54
2022/09/19 13:02:14;;;;;;;;;;;;;;;17.07;67.79;102048.63;5045955;28;20321;-55
2022/09/19 13:04:47;;;;;;;;;;;;;;;17.15;67.34;102063.81;5042747;28;20360;-55
2022/09/19 13:07:27;;;;;;;;;;;;;;;17.18;66.70;102050.84;5046611;28;20380;-54